createdAt,value
2023-02-05T00:02:10.306Z,4.60
2023-02-05T00:04:39.026Z,4.47
2023-02-05T00:07:07.131Z,4.00
2023-02-05T00:09:36.521Z,4.28
2023-02-05T00:12:04.387Z,4.97
2023-02-05T00:14:32.136Z,4.25
2023-02-05T00:17:01.141Z,3.75
2023-02-05T00:19:30.900Z,4.55
2023-02-05T00:21:58.554Z,3.70
2023-02-05T00:24:26.690Z,3.75
2023-02-05T00:26:54.678Z,3.70
2023-02-05T00:29:22.466Z,3.83
2023-02-05T00:31:50.313Z,4.47
2023-02-05T00:34:19.688Z,3.53
2023-02-05T00:36:47.578Z,3.67
2023-02-05T00:39:15.270Z,5.53
2023-02-05T00:41:43.048Z,4.18
2023-02-05T00:44:10.752Z,4.32
2023-02-05T00:46:38.563Z,4.40
2023-02-05T00:49:06.209Z,5.65
2023-02-05T00:51:35.362Z,3.42
2023-02-05T00:54:03.076Z,4.15
2023-02-05T00:56:30.776Z,4.45
2023-02-05T00:59:00.117Z,4.55
2023-02-05T01:01:27.879Z,4.20
2023-02-05T01:03:55.597Z,3.90
2023-02-05T01:06:23.254Z,4.18
2023-02-05T01:08:52.277Z,3.85
2023-02-05T01:11:21.005Z,4.13
2023-02-05T01:13:48.671Z,4.93
2023-02-05T01:16:16.419Z,4.22
2023-02-05T01:18:44.119Z,4.63
2023-02-05T01:21:13.675Z,4.07
2023-02-05T01:23:41.337Z,4.05
2023-02-05T01:26:10.407Z,4.50
2023-02-05T01:28:38.215Z,6.20
2023-02-05T01:31:06.507Z,3.85
2023-02-05T01:33:34.238Z,4.88
2023-02-05T01:36:01.938Z,4.22
2023-02-05T01:38:29.585Z,4.30
2023-02-05T01:40:59.931Z,3.80
2023-02-05T01:43:29.021Z,4.32
2023-02-05T01:46:04.795Z,5.18
2023-02-05T01:48:35.426Z,3.67
2023-02-05T01:51:05.427Z,4.18
2023-02-05T01:53:34.689Z,3.80
2023-02-05T01:56:03.468Z,4.55
2023-02-05T01:58:34.834Z,4.00
2023-02-05T02:01:02.484Z,4.20
2023-02-05T02:03:31.636Z,4.68
2023-02-05T02:05:59.497Z,5.40
2023-02-05T02:08:27.490Z,4.03
2023-02-05T02:10:57.735Z,4.53
2023-02-05T02:13:25.825Z,4.10
2023-02-05T02:15:55.376Z,3.60
2023-02-05T02:18:29.438Z,4.32
2023-02-05T02:21:05.489Z,4.07
2023-02-05T02:23:38.054Z,4.20
2023-02-05T02:26:17.824Z,4.38
2023-02-05T02:28:50.315Z,3.83
2023-02-05T02:31:19.671Z,4.78
2023-02-05T02:33:49.347Z,4.30
2023-02-05T02:36:19.272Z,4.38
2023-02-05T02:38:48.596Z,3.97
2023-02-05T02:41:19.586Z,4.65
2023-02-05T02:43:51.163Z,3.40
2023-02-05T02:46:20.592Z,4.32
2023-02-05T02:48:49.106Z,4.25
2023-02-05T02:51:17.292Z,4.78
2023-02-05T02:53:47.790Z,4.57
2023-02-05T02:56:15.963Z,5.30
2023-02-05T02:58:44.708Z,5.18
2023-02-05T03:01:14.238Z,5.50
2023-02-05T03:03:43.612Z,5.38
2023-02-05T03:06:12.776Z,5.03
2023-02-05T03:08:43.109Z,5.63
2023-02-05T03:11:13.559Z,6.15
2023-02-05T03:13:41.367Z,4.45
2023-02-05T03:16:09.464Z,6.35
2023-02-05T03:18:38.932Z,5.53
2023-02-05T03:21:10.040Z,6.00
2023-02-05T03:23:37.691Z,5.50
2023-02-05T03:26:05.484Z,5.30
2023-02-05T03:28:33.293Z,6.22
2023-02-05T03:31:03.545Z,6.22
2023-02-05T03:33:40.583Z,6.07
2023-02-05T03:36:10.976Z,6.07
2023-02-05T03:38:42.371Z,6.72
2023-02-05T03:41:14.838Z,6.45
2023-02-05T03:43:50.186Z,5.28
2023-02-05T03:48:51.446Z,6.78
2023-02-05T03:51:23.844Z,5.90
2023-02-05T03:53:56.822Z,5.63
2023-02-05T03:56:26.735Z,5.40
2023-02-05T03:58:56.017Z,5.40
2023-02-05T04:01:24.627Z,5.00
2023-02-05T04:03:53.683Z,5.95
2023-02-05T04:06:21.352Z,4.95
2023-02-05T04:08:49.013Z,5.07
2023-02-05T04:11:16.697Z,5.18
2023-02-05T04:13:44.474Z,6.30
2023-02-05T04:16:12.169Z,6.68
2023-02-05T04:18:39.888Z,5.28
2023-02-05T04:21:09.612Z,6.03
2023-02-05T04:23:37.276Z,6.07
2023-02-05T04:26:05.056Z,5.72
2023-02-05T04:28:32.766Z,5.53
2023-02-05T04:31:00.663Z,6.80
2023-02-05T04:33:28.396Z,5.45
2023-02-05T04:35:59.104Z,5.38
2023-02-05T04:38:28.147Z,5.57
2023-02-05T04:40:55.788Z,7.72
2023-02-05T04:43:23.484Z,7.30
2023-02-05T04:45:51.250Z,6.32
2023-02-05T04:48:19.275Z,8.13
2023-02-05T04:50:47.112Z,7.78
2023-02-05T04:53:14.847Z,6.78
2023-02-05T04:55:43.833Z,7.53
2023-02-05T04:58:11.517Z,6.40
2023-02-05T05:00:39.189Z,6.40
2023-02-05T05:03:06.834Z,8.20
2023-02-05T05:05:36.193Z,7.50
2023-02-05T05:08:03.952Z,7.53
2023-02-05T05:10:31.774Z,7.88
2023-02-05T05:13:00.813Z,7.93
2023-02-05T05:15:28.507Z,9.68
2023-02-05T05:17:56.148Z,9.10
2023-02-05T05:20:23.847Z,10.98
2023-02-05T05:22:51.515Z,10.10
2023-02-05T05:25:19.265Z,8.90
2023-02-05T05:27:46.966Z,10.30
2023-02-05T05:30:16.420Z,8.93
2023-02-05T05:32:44.311Z,11.02
2023-02-05T05:35:11.973Z,10.48
2023-02-05T05:37:39.690Z,12.90
2023-02-05T05:40:30.515Z,12.68
2023-02-05T05:43:15.293Z,15.40
2023-02-05T05:45:44.349Z,12.73
2023-02-05T05:48:12.006Z,15.15
2023-02-05T05:50:39.763Z,14.57
2023-02-05T05:53:07.397Z,15.77
2023-02-05T05:55:35.674Z,14.07
2023-02-05T05:58:04.061Z,14.90
2023-02-05T06:00:31.965Z,12.43
2023-02-05T06:03:01.003Z,10.27
2023-02-05T06:05:28.658Z,9.93
2023-02-05T06:07:56.315Z,8.65
2023-02-05T06:10:24.387Z,6.85
2023-02-05T06:12:53.139Z,7.72
2023-02-05T06:15:21.064Z,5.85
2023-02-05T06:17:48.794Z,5.00
2023-02-05T06:20:17.953Z,4.07
2023-02-05T06:22:45.642Z,4.35
2023-02-05T06:25:13.449Z,3.55
2023-02-05T06:27:41.188Z,2.70
2023-02-05T06:30:10.330Z,2.28
2023-02-05T06:32:37.995Z,2.70
2023-02-05T06:35:05.962Z,2.72
2023-02-05T06:37:46.593Z,3.90
2023-02-05T06:40:15.774Z,2.92
2023-02-05T06:42:43.599Z,2.30
2023-02-05T06:45:11.312Z,3.55
2023-02-05T06:47:39.043Z,2.53
2023-02-05T06:50:07.556Z,3.13
2023-02-05T06:52:36.610Z,3.00
2023-02-05T06:55:04.845Z,3.85
2023-02-05T06:57:33.401Z,2.22
2023-02-05T07:00:01.082Z,2.58
2023-02-05T07:02:29.097Z,1.23
2023-02-05T07:04:56.755Z,2.47
2023-02-05T07:07:24.424Z,2.40
2023-02-05T07:09:53.432Z,1.70
2023-02-05T07:12:21.892Z,1.17
2023-02-05T07:14:54.005Z,1.23
2023-02-05T07:17:22.130Z,1.27
2023-02-05T07:19:49.803Z,1.15
2023-02-05T07:22:17.523Z,1.50
2023-02-05T07:24:45.507Z,1.70
2023-02-05T07:27:14.554Z,1.92
2023-02-05T07:29:42.416Z,1.48
2023-02-05T07:32:10.265Z,1.58
2023-02-05T07:34:38.150Z,1.58
2023-02-05T07:37:06.213Z,1.38
2023-02-05T07:39:34.479Z,1.40
2023-02-05T07:42:02.208Z,0.98
2023-02-05T07:44:31.230Z,1.90
2023-02-05T07:46:59.117Z,1.95
2023-02-05T07:49:27.439Z,1.27
2023-02-05T07:51:56.716Z,1.88
2023-02-05T07:54:24.674Z,1.90
2023-02-05T07:56:52.380Z,1.33
2023-02-05T07:59:20.063Z,1.55
2023-02-05T08:01:49.105Z,0.68
2023-02-05T08:04:16.898Z,2.40
2023-02-05T08:09:46.207Z,1.77
2023-02-05T08:12:14.108Z,1.80
2023-02-05T08:14:41.768Z,1.85
2023-02-05T08:17:10.848Z,1.48
2023-02-05T08:19:43.321Z,1.73
2023-02-05T08:22:11.060Z,1.85
2023-02-05T08:24:38.681Z,1.70
2023-02-05T08:27:06.429Z,1.42
2023-02-05T08:29:34.122Z,1.40
2023-02-05T08:32:02.953Z,1.92
2023-02-05T08:34:31.996Z,1.52
2023-02-05T08:37:00.001Z,1.70
2023-02-05T08:39:27.652Z,2.38
2023-02-05T08:41:57.018Z,3.28
2023-02-05T08:44:24.859Z,3.55
2023-02-05T08:46:52.564Z,2.50
2023-02-05T08:49:20.273Z,2.22
2023-02-05T08:51:49.467Z,1.10
2023-02-05T08:54:17.138Z,2.00
2023-02-05T08:56:45.757Z,2.55
2023-02-05T08:59:13.861Z,1.33
2023-02-05T09:01:42.995Z,2.13
2023-02-05T09:04:13.413Z,1.90
2023-02-05T09:06:41.397Z,1.58
2023-02-05T09:09:10.796Z,1.73
2023-02-05T09:11:39.555Z,3.63
2023-02-05T09:14:07.304Z,2.28
2023-02-05T09:16:35.198Z,2.28
2023-02-05T09:19:03.218Z,3.75
2023-02-05T09:21:30.909Z,3.13
2023-02-05T09:23:58.902Z,2.35
2023-02-05T09:26:27.919Z,2.30
2023-02-05T09:28:55.617Z,2.50
2023-02-05T09:31:23.405Z,2.75
2023-02-05T09:33:51.230Z,2.25
2023-02-05T09:36:19.808Z,2.58
2023-02-05T09:38:47.913Z,2.40
2023-02-05T09:41:22.736Z,3.58
2023-02-05T09:43:55.507Z,2.15
2023-02-05T09:46:27.475Z,2.15
2023-02-05T09:48:57.770Z,2.55
2023-02-05T09:51:30.026Z,1.50
2023-02-05T09:54:02.321Z,1.50
2023-02-05T09:56:29.997Z,2.72
2023-02-05T09:58:59.783Z,2.75
2023-02-05T10:01:32.799Z,2.95
2023-02-05T10:04:01.832Z,2.30
2023-02-05T10:06:35.325Z,4.85
2023-02-05T10:09:10.754Z,2.88
2023-02-05T10:14:12.947Z,2.70
2023-02-05T10:16:55.413Z,2.13
2023-02-05T10:19:31.214Z,1.90
2023-02-05T10:22:11.966Z,2.67
2023-02-05T10:24:55.349Z,3.78
2023-02-05T10:27:23.732Z,3.75
2023-02-05T10:29:57.598Z,2.78
2023-02-05T10:32:32.807Z,1.80
2023-02-05T10:35:03.757Z,3.30
2023-02-05T10:37:37.860Z,1.88
2023-02-05T10:40:12.930Z,2.65
2023-02-05T10:42:42.064Z,3.58
2023-02-05T10:45:19.433Z,2.55
2023-02-05T10:47:58.872Z,2.35
2023-02-05T10:50:29.252Z,3.38
2023-02-05T10:52:57.293Z,2.03
2023-02-05T10:55:25.018Z,2.65
2023-02-05T10:57:52.654Z,2.55
2023-02-05T11:00:23.063Z,2.92
2023-02-05T11:02:52.013Z,3.10
2023-02-05T11:05:23.694Z,2.92
2023-02-05T11:07:51.898Z,2.67
2023-02-05T11:10:20.829Z,2.58
2023-02-05T11:12:50.746Z,2.63
2023-02-05T11:15:25.446Z,2.40
2023-02-05T11:17:54.144Z,2.47
2023-02-05T11:20:32.406Z,3.97
2023-02-05T11:23:07.670Z,2.22
2023-02-05T11:25:35.376Z,1.92
2023-02-05T11:28:05.592Z,2.03
2023-02-05T11:30:50.739Z,3.72
2023-02-05T11:33:25.915Z,3.47
2023-02-05T11:35:55.461Z,0.95
2023-02-05T11:38:29.859Z,1.42
2023-02-05T11:40:58.589Z,2.25
2023-02-05T11:43:28.544Z,2.25
2023-02-05T11:45:59.132Z,2.33
2023-02-05T11:48:32.943Z,2.25
2023-02-05T11:51:02.777Z,3.22
2023-02-05T11:53:32.987Z,2.15
2023-02-05T11:56:02.539Z,2.88
2023-02-05T11:58:36.950Z,1.17
2023-02-05T12:01:07.628Z,2.13
2023-02-05T12:03:36.101Z,2.55
2023-02-05T12:06:09.347Z,0.88
2023-02-05T12:08:42.864Z,3.47
2023-02-05T12:11:24.229Z,0.85
2023-02-05T12:13:57.809Z,2.47
2023-02-05T12:16:35.852Z,3.70
2023-02-05T12:19:07.644Z,3.60
2023-02-05T12:21:42.954Z,4.00
2023-02-05T12:24:25.146Z,1.80
2023-02-05T12:26:58.153Z,1.60
2023-02-05T12:29:44.108Z,2.55
2023-02-05T12:32:18.464Z,1.40
2023-02-05T12:34:50.131Z,2.15
2023-02-05T12:37:30.036Z,2.92
2023-02-05T12:40:03.025Z,2.90
2023-02-05T12:42:33.104Z,2.13
2023-02-05T12:45:07.593Z,1.80
2023-02-05T12:47:46.322Z,2.23
2023-02-05T12:50:23.301Z,2.35
2023-02-05T12:52:58.033Z,3.58
2023-02-05T12:55:33.211Z,3.25
2023-02-05T12:58:03.053Z,3.17
2023-02-05T13:00:33.950Z,2.30
2023-02-05T13:03:08.568Z,1.60
2023-02-05T13:05:38.049Z,2.17
2023-02-05T13:08:08.525Z,1.65
2023-02-05T13:10:39.837Z,2.22
2023-02-05T13:13:11.987Z,3.80
2023-02-05T13:15:41.624Z,2.30
2023-02-05T13:18:15.389Z,2.35
2023-02-05T13:21:01.764Z,1.40
2023-02-05T13:23:47.279Z,2.80
2023-02-05T13:26:34.217Z,2.17
2023-02-05T13:29:04.685Z,2.58
2023-02-05T13:31:36.617Z,3.10
2023-02-05T13:34:06.880Z,2.47
2023-02-05T13:36:56.023Z,3.25
2023-02-05T13:39:41.606Z,2.83
2023-02-05T13:42:18.797Z,1.98
2023-02-05T13:44:59.404Z,3.05
2023-02-05T13:47:43.460Z,2.15
2023-02-05T13:50:29.294Z,2.97
2023-02-05T13:55:37.743Z,2.95
2023-02-05T13:58:14.360Z,2.05
2023-02-05T14:00:43.524Z,2.50
2023-02-05T14:03:22.687Z,2.05
2023-02-05T14:05:51.742Z,2.10
2023-02-05T14:08:21.621Z,2.30
2023-02-05T14:10:57.459Z,2.95
2023-02-05T14:13:26.001Z,2.15
2023-02-05T14:15:57.374Z,1.90
2023-02-05T14:18:44.595Z,2.03
2023-02-05T14:21:27.102Z,2.55
2023-02-05T14:23:57.062Z,2.63
2023-02-05T14:26:39.670Z,2.28
2023-02-05T14:29:28.164Z,3.28
2023-02-05T14:31:56.814Z,2.25
2023-02-05T14:34:51.615Z,2.05
2023-02-05T14:37:34.328Z,2.45
2023-02-05T14:40:14.258Z,1.80
2023-02-05T14:42:43.061Z,1.73
2023-02-05T14:45:13.980Z,1.88
2023-02-05T14:47:41.774Z,1.77
2023-02-05T14:50:11.342Z,1.83
2023-02-05T14:52:40.598Z,1.50
2023-02-05T14:55:09.776Z,2.40
2023-02-05T14:57:42.641Z,1.65
2023-02-05T15:00:24.649Z,2.50
2023-02-05T15:03:25.328Z,2.35
2023-02-05T15:06:04.645Z,2.88
2023-02-05T15:08:42.163Z,3.50
2023-02-05T15:11:13.057Z,2.17
2023-02-05T15:13:42.587Z,1.80
2023-02-05T15:16:25.085Z,2.53
2023-02-05T15:18:54.021Z,2.58
2023-02-05T15:21:25.100Z,2.08
2023-02-05T15:23:54.221Z,2.30
2023-02-05T15:26:24.858Z,2.17
2023-02-05T15:29:00.627Z,1.73
2023-02-05T15:31:31.837Z,1.75
2023-02-05T15:34:28.040Z,3.60
2023-02-05T15:36:57.273Z,2.95
2023-02-05T15:39:27.805Z,2.85
2023-02-05T15:41:56.890Z,2.00
2023-02-05T15:44:27.800Z,3.17
2023-02-05T15:46:56.377Z,3.25
2023-02-05T15:49:27.501Z,2.03
2023-02-05T15:51:55.312Z,1.75
2023-02-05T15:54:23.706Z,1.90
2023-02-05T15:56:52.774Z,2.00
2023-02-05T15:59:22.287Z,2.30
2023-02-05T16:01:54.555Z,2.88
2023-02-05T16:04:28.826Z,2.80
2023-02-05T16:06:56.599Z,4.45
2023-02-05T16:09:25.348Z,3.17
2023-02-05T16:11:53.245Z,1.48
2023-02-05T16:14:22.482Z,2.95
2023-02-05T16:17:03.644Z,2.17
2023-02-05T16:19:33.503Z,4.03
2023-02-05T16:22:03.615Z,1.20
2023-02-05T16:24:33.677Z,3.13
2023-02-05T16:27:04.444Z,1.88
2023-02-05T16:29:47.023Z,3.08
2023-02-05T16:32:20.753Z,2.92
2023-02-05T16:34:48.652Z,3.10
2023-02-05T16:37:17.612Z,1.80
2023-02-05T16:39:46.196Z,2.70
2023-02-05T16:42:19.282Z,3.85
2023-02-05T16:44:49.477Z,2.30
2023-02-05T16:47:19.167Z,2.92
2023-02-05T16:49:47.453Z,3.55
2023-02-05T16:52:28.927Z,3.72
2023-02-05T16:54:56.628Z,3.53
2023-02-05T16:57:26.482Z,4.00
2023-02-05T16:59:55.589Z,2.72
2023-02-05T17:02:33.222Z,2.83
2023-02-05T17:05:02.210Z,4.18
2023-02-05T17:07:30.306Z,2.88
2023-02-05T17:10:13.948Z,3.40
2023-02-05T17:12:47.679Z,3.40
2023-02-05T17:15:33.916Z,2.92
2023-02-05T17:18:06.570Z,1.40
2023-02-05T17:20:35.175Z,2.40
2023-02-05T17:23:10.308Z,2.15
2023-02-05T17:25:39.186Z,2.70
2023-02-05T17:28:07.536Z,2.45
2023-02-05T17:30:36.616Z,3.10
2023-02-05T17:33:09.173Z,3.92
2023-02-05T17:35:37.297Z,2.75
2023-02-05T17:38:05.028Z,3.15
2023-02-05T17:40:33.566Z,2.95
2023-02-05T17:43:01.426Z,4.38
2023-02-05T17:45:32.231Z,2.80
2023-02-05T17:48:00.193Z,3.17
2023-02-05T17:50:29.876Z,4.78
2023-02-05T17:52:58.467Z,2.20
2023-02-05T17:55:26.265Z,3.35
2023-02-05T17:57:54.124Z,3.60
2023-02-05T18:00:24.313Z,3.75
2023-02-05T18:02:52.273Z,3.17
2023-02-05T18:05:20.589Z,3.63
2023-02-05T18:07:50.444Z,3.20
2023-02-05T18:10:28.739Z,3.67
2023-02-05T18:12:56.548Z,3.15
2023-02-05T18:15:24.672Z,2.90
2023-02-05T18:17:52.395Z,3.10
2023-02-05T18:20:21.103Z,3.05
2023-02-05T18:22:50.566Z,3.00
2023-02-05T18:25:18.341Z,4.00
2023-02-05T18:27:46.802Z,3.25
2023-02-05T18:30:22.821Z,2.72
2023-02-05T18:32:50.743Z,4.28
2023-02-05T18:35:18.648Z,3.10
2023-02-05T18:37:46.360Z,3.88
2023-02-05T18:40:16.435Z,4.03
2023-02-05T18:42:47.094Z,2.92
2023-02-05T18:45:14.805Z,3.53
2023-02-05T18:47:42.464Z,3.25
2023-02-05T18:50:10.547Z,2.60
2023-02-05T18:52:38.305Z,3.40
2023-02-05T18:55:06.458Z,3.92
2023-02-05T18:57:34.142Z,3.22
2023-02-05T19:00:03.180Z,3.10
2023-02-05T19:02:30.883Z,2.78
2023-02-05T19:04:58.879Z,2.42
2023-02-05T19:07:26.770Z,3.58
2023-02-05T19:09:56.199Z,3.47
2023-02-05T19:12:23.974Z,3.22
2023-02-05T19:14:51.737Z,3.53
2023-02-05T19:17:20.761Z,4.03
2023-02-05T19:19:50.370Z,3.58
2023-02-05T19:22:18.017Z,3.17
2023-02-05T19:24:45.989Z,4.05
2023-02-05T19:27:14.518Z,4.28
2023-02-05T19:29:42.257Z,3.53
2023-02-05T19:32:09.925Z,3.35
2023-02-05T19:34:43.199Z,4.47
2023-02-05T19:37:12.340Z,2.88
2023-02-05T19:39:40.187Z,3.55
2023-02-05T19:42:08.182Z,2.83
2023-02-05T19:44:35.804Z,3.55
2023-02-05T19:47:03.617Z,3.35
2023-02-05T19:49:31.444Z,3.40
2023-02-05T19:52:01.495Z,4.18
2023-02-05T19:54:30.449Z,2.90
2023-02-05T19:56:58.186Z,3.88
2023-02-05T19:59:26.010Z,4.72
2023-02-05T20:01:54.050Z,4.78
2023-02-05T20:04:22.478Z,4.00
2023-02-05T20:06:52.472Z,4.78
2023-02-05T20:09:21.504Z,5.15
2023-02-05T20:11:50.919Z,3.35
2023-02-05T20:14:18.775Z,2.83
2023-02-05T20:16:46.931Z,3.83
2023-02-05T20:19:15.382Z,3.83
2023-02-05T20:21:43.487Z,4.00
2023-02-05T20:24:11.135Z,3.90
2023-02-05T20:26:40.402Z,4.18
2023-02-05T20:29:25.872Z,4.15
2023-02-05T20:31:55.066Z,3.53
2023-02-05T20:34:25.639Z,3.08
2023-02-05T20:36:53.965Z,3.63
2023-02-05T20:39:22.661Z,4.53
2023-02-05T20:41:52.491Z,4.05
2023-02-05T20:44:20.350Z,4.60
2023-02-05T20:46:48.087Z,4.20
2023-02-05T20:49:15.796Z,3.03
2023-02-05T20:51:44.243Z,3.75
2023-02-05T20:54:12.169Z,3.95
2023-02-05T20:56:40.398Z,3.15
2023-02-05T20:59:10.499Z,5.20
2023-02-05T21:01:38.718Z,3.50
2023-02-05T21:04:07.229Z,2.97
2023-02-05T21:06:35.986Z,3.45
2023-02-05T21:09:03.668Z,2.97
2023-02-05T21:11:32.218Z,3.65
2023-02-05T21:13:59.887Z,4.13
2023-02-05T21:16:29.067Z,3.47
2023-02-05T21:18:57.000Z,5.30
2023-02-05T21:21:25.501Z,4.65
2023-02-05T21:23:57.269Z,3.50
2023-02-05T21:26:26.010Z,3.92
2023-02-05T21:28:54.896Z,4.20
2023-02-05T21:31:23.119Z,2.78
2023-02-05T21:33:53.747Z,3.10
2023-02-05T21:36:21.417Z,3.05
2023-02-05T21:38:49.092Z,3.13
2023-02-05T21:41:17.346Z,4.20
2023-02-05T21:43:49.017Z,3.70
2023-02-05T21:46:16.916Z,3.40
2023-02-05T21:48:48.338Z,2.72
2023-02-05T21:51:18.300Z,3.03
2023-02-05T21:53:46.389Z,3.30
2023-02-05T21:56:15.373Z,3.28
2023-02-05T21:58:43.297Z,3.10
2023-02-05T22:01:11.846Z,4.75
2023-02-05T22:03:40.087Z,3.17
2023-02-05T22:06:07.998Z,3.58
2023-02-05T22:08:37.682Z,2.92
2023-02-05T22:11:06.617Z,3.90
2023-02-05T22:13:34.804Z,3.30
2023-02-05T22:16:03.820Z,2.70
2023-02-05T22:18:31.577Z,2.03
2023-02-05T22:21:05.019Z,4.65
2023-02-05T22:23:32.764Z,3.63
2023-02-05T22:26:01.882Z,3.85
2023-02-05T22:28:29.661Z,3.30
2023-02-05T22:31:01.132Z,3.13
2023-02-05T22:33:32.375Z,3.35
2023-02-05T22:36:00.569Z,3.88
2023-02-05T22:38:28.646Z,3.08
2023-02-05T22:40:56.383Z,2.95
2023-02-05T22:43:26.559Z,5.47
2023-02-05T22:45:55.023Z,3.38
2023-02-05T22:48:22.788Z,3.13
2023-02-05T22:50:50.588Z,4.10
2023-02-05T22:53:18.231Z,2.97
2023-02-05T22:55:45.900Z,3.92
2023-02-05T22:58:13.556Z,3.03
2023-02-05T23:00:42.744Z,3.50
2023-02-05T23:03:10.567Z,3.42
2023-02-05T23:05:38.269Z,4.00
2023-02-05T23:08:06.094Z,3.88
2023-02-05T23:10:37.520Z,3.30
2023-02-05T23:13:05.551Z,3.85
2023-02-05T23:15:33.433Z,4.38
2023-02-05T23:18:02.613Z,3.72
2023-02-05T23:20:30.495Z,3.67
2023-02-05T23:22:58.276Z,4.57
2023-02-05T23:25:25.959Z,3.72
2023-02-05T23:27:53.642Z,3.35
2023-02-05T23:30:21.521Z,4.07
2023-02-05T23:32:49.207Z,3.95
2023-02-05T23:35:18.304Z,4.75
2023-02-05T23:37:46.191Z,4.10
2023-02-05T23:40:14.145Z,2.80
2023-02-05T23:42:43.339Z,3.70
2023-02-05T23:45:11.191Z,3.50
2023-02-05T23:47:38.832Z,3.65
2023-02-05T23:50:06.915Z,4.45
2023-02-05T23:52:36.054Z,3.63
2023-02-05T23:55:05.172Z,4.47
2023-02-05T23:57:32.923Z,3.72
